sensor_id;sensor_type;location;lat;lon;timestamp;P1;durP1;ratioP1;P2;durP2;ratioP2
2099;SDS011;1055;48.854;9.302;2023-06-14T00:01:45;9.10;;;6.30;;
2099;SDS011;1055;48.854;9.302;2023-06-14T00:04:12;9.03;;;6.80;;
2099;SDS011;1055;48.854;9.302;2023-06-14T00:06:39;10.60;;;7.10;;
2099;SDS011;1055;48.854;9.302;2023-06-14T00:09:06;11.17;;;7.17;;
2099;SDS011;1055;48.854;9.302;2023-06-14T00:11:33;8.87;;;6.30;;
2099;SDS011;1055;48.854;9.302;2023-06-14T00:13:59;11.00;;;6.70;;
2099;SDS011;1055;48.854;9.302;2023-06-14T00:16:24;9.00;;;5.93;;
2099;SDS011;1055;48.854;9.302;2023-06-14T00:18:50;9.80;;;6.67;;
2099;SDS011;1055;48.854;9.302;2023-06-14T00:21:18;12.30;;;7.23;;
2099;SDS011;1055;48.854;9.302;2023-06-14T00:23:44;9.97;;;6.33;;
2099;SDS011;1055;48.854;9.302;2023-06-14T00:26:10;9.20;;;6.20;;
2099;SDS011;1055;48.854;9.302;2023-06-14T00:28:35;9.27;;;6.60;;
2099;SDS011;1055;48.854;9.302;2023-06-14T00:31:01;9.63;;;5.80;;
2099;SDS011;1055;48.854;9.302;2023-06-14T00:33:26;9.50;;;6.50;;
2099;SDS011;1055;48.854;9.302;2023-06-14T00:35:52;13.40;;;6.50;;
2099;SDS011;1055;48.854;9.302;2023-06-14T00:38:20;10.83;;;6.70;;
2099;SDS011;1055;48.854;9.302;2023-06-14T00:40:46;10.03;;;6.23;;
2099;SDS011;1055;48.854;9.302;2023-06-14T00:43:12;9.90;;;6.80;;
2099;SDS011;1055;48.854;9.302;2023-06-14T00:45:38;18.13;;;6.17;;
2099;SDS011;1055;48.854;9.302;2023-06-14T00:48:04;10.50;;;6.63;;
2099;SDS011;1055;48.854;9.302;2023-06-14T00:50:31;8.90;;;6.50;;
2099;SDS011;1055;48.854;9.302;2023-06-14T00:52:58;10.83;;;6.30;;
2099;SDS011;1055;48.854;9.302;2023-06-14T00:55:27;9.40;;;6.40;;
2099;SDS011;1055;48.854;9.302;2023-06-14T00:57:54;9.30;;;6.30;;
2099;SDS011;1055;48.854;9.302;2023-06-14T01:00:20;9.37;;;6.53;;
2099;SDS011;1055;48.854;9.302;2023-06-14T01:02:46;8.43;;;6.50;;
2099;SDS011;1055;48.854;9.302;2023-06-14T01:05:12;10.10;;;7.13;;
2099;SDS011;1055;48.854;9.302;2023-06-14T01:10:39;9.37;;;6.40;;
2099;SDS011;1055;48.854;9.302;2023-06-14T01:15:57;9.73;;;7.00;;
2099;SDS011;1055;48.854;9.302;2023-06-14T01:18:23;9.03;;;6.33;;
2099;SDS011;1055;48.854;9.302;2023-06-14T01:20:51;9.30;;;6.70;;
2099;SDS011;1055;48.854;9.302;2023-06-14T01:23:20;9.27;;;6.10;;
2099;SDS011;1055;48.854;9.302;2023-06-14T01:25:46;10.13;;;6.80;;
2099;SDS011;1055;48.854;9.302;2023-06-14T01:28:13;10.00;;;6.30;;
2099;SDS011;1055;48.854;9.302;2023-06-14T01:30:42;10.47;;;6.37;;
2099;SDS011;1055;48.854;9.302;2023-06-14T01:33:20;9.37;;;6.77;;
2099;SDS011;1055;48.854;9.302;2023-06-14T01:35:47;10.33;;;6.93;;
2099;SDS011;1055;48.854;9.302;2023-06-14T01:38:15;9.60;;;6.70;;
2099;SDS011;1055;48.854;9.302;2023-06-14T01:40:47;8.60;;;6.50;;
2099;SDS011;1055;48.854;9.302;2023-06-14T01:43:13;10.27;;;6.93;;
2099;SDS011;1055;48.854;9.302;2023-06-14T01:45:41;12.90;;;7.07;;
2099;SDS011;1055;48.854;9.302;2023-06-14T01:48:08;11.60;;;7.37;;
2099;SDS011;1055;48.854;9.302;2023-06-14T01:50:34;15.00;;;6.80;;
2099;SDS011;1055;48.854;9.302;2023-06-14T01:52:59;10.00;;;6.83;;
2099;SDS011;1055;48.854;9.302;2023-06-14T01:55:26;9.13;;;6.60;;
2099;SDS011;1055;48.854;9.302;2023-06-14T01:57:52;12.70;;;6.77;;
2099;SDS011;1055;48.854;9.302;2023-06-14T02:00:18;10.17;;;6.13;;
2099;SDS011;1055;48.854;9.302;2023-06-14T02:02:44;11.80;;;6.77;;
2099;SDS011;1055;48.854;9.302;2023-06-14T02:05:11;9.97;;;6.83;;
2099;SDS011;1055;48.854;9.302;2023-06-14T02:07:36;8.80;;;6.43;;
2099;SDS011;1055;48.854;9.302;2023-06-14T02:10:05;9.57;;;6.23;;
2099;SDS011;1055;48.854;9.302;2023-06-14T02:12:31;12.23;;;6.53;;
2099;SDS011;1055;48.854;9.302;2023-06-14T02:14:56;8.70;;;6.20;;
2099;SDS011;1055;48.854;9.302;2023-06-14T02:17:23;8.80;;;6.30;;
2099;SDS011;1055;48.854;9.302;2023-06-14T02:19:48;9.57;;;6.23;;
2099;SDS011;1055;48.854;9.302;2023-06-14T02:22:15;11.40;;;6.80;;
2099;SDS011;1055;48.854;9.302;2023-06-14T02:24:41;10.43;;;6.80;;
2099;SDS011;1055;48.854;9.302;2023-06-14T02:27:07;9.90;;;6.70;;
2099;SDS011;1055;48.854;9.302;2023-06-14T02:29:35;12.10;;;7.00;;
2099;SDS011;1055;48.854;9.302;2023-06-14T02:32:01;9.63;;;6.80;;
2099;SDS011;1055;48.854;9.302;2023-06-14T02:34:27;13.40;;;6.67;;
2099;SDS011;1055;48.854;9.302;2023-06-14T02:36:53;9.97;;;6.30;;
2099;SDS011;1055;48.854;9.302;2023-06-14T02:39:20;11.77;;;6.50;;
2099;SDS011;1055;48.854;9.302;2023-06-14T02:41:48;10.40;;;6.27;;
2099;SDS011;1055;48.854;9.302;2023-06-14T02:44:15;9.73;;;6.30;;
2099;SDS011;1055;48.854;9.302;2023-06-14T02:46:43;8.90;;;6.07;;
2099;SDS011;1055;48.854;9.302;2023-06-14T02:49:09;9.20;;;7.10;;
2099;SDS011;1055;48.854;9.302;2023-06-14T02:51:35;10.00;;;7.10;;
2099;SDS011;1055;48.854;9.302;2023-06-14T02:54:01;9.57;;;6.40;;
2099;SDS011;1055;48.854;9.302;2023-06-14T02:56:26;10.07;;;6.83;;
2099;SDS011;1055;48.854;9.302;2023-06-14T02:58:53;9.07;;;6.90;;
2099;SDS011;1055;48.854;9.302;2023-06-14T03:01:18;13.20;;;6.93;;
2099;SDS011;1055;48.854;9.302;2023-06-14T03:03:45;10.30;;;6.97;;
2099;SDS011;1055;48.854;9.302;2023-06-14T03:06:11;10.50;;;7.57;;
2099;SDS011;1055;48.854;9.302;2023-06-14T03:08:39;12.90;;;8.00;;
2099;SDS011;1055;48.854;9.302;2023-06-14T03:11:06;10.67;;;7.53;;
2099;SDS011;1055;48.854;9.302;2023-06-14T03:13:33;8.70;;;6.47;;
2099;SDS011;1055;48.854;9.302;2023-06-14T03:16:00;9.40;;;6.70;;
2099;SDS011;1055;48.854;9.302;2023-06-14T03:18:31;9.70;;;6.33;;
2099;SDS011;1055;48.854;9.302;2023-06-14T03:21:00;10.50;;;6.87;;
2099;SDS011;1055;48.854;9.302;2023-06-14T03:23:26;9.83;;;6.63;;
2099;SDS011;1055;48.854;9.302;2023-06-14T03:25:52;11.13;;;7.40;;
2099;SDS011;1055;48.854;9.302;2023-06-14T03:28:18;10.80;;;7.60;;
2099;SDS011;1055;48.854;9.302;2023-06-14T03:30:43;10.30;;;6.87;;
2099;SDS011;1055;48.854;9.302;2023-06-14T03:33:09;13.10;;;7.53;;
2099;SDS011;1055;48.854;9.302;2023-06-14T03:35:35;10.00;;;7.10;;
2099;SDS011;1055;48.854;9.302;2023-06-14T03:38:01;10.03;;;6.60;;
2099;SDS011;1055;48.854;9.302;2023-06-14T03:40:28;10.43;;;7.27;;
2099;SDS011;1055;48.854;9.302;2023-06-14T03:42:54;10.53;;;7.03;;
2099;SDS011;1055;48.854;9.302;2023-06-14T03:45:20;10.80;;;6.77;;
2099;SDS011;1055;48.854;9.302;2023-06-14T03:47:46;10.00;;;7.07;;
2099;SDS011;1055;48.854;9.302;2023-06-14T03:50:12;9.80;;;7.53;;
2099;SDS011;1055;48.854;9.302;2023-06-14T03:52:38;10.43;;;7.60;;
2099;SDS011;1055;48.854;9.302;2023-06-14T03:55:04;13.37;;;8.60;;
2099;SDS011;1055;48.854;9.302;2023-06-14T03:57:30;12.10;;;7.40;;
2099;SDS011;1055;48.854;9.302;2023-06-14T03:59:56;10.20;;;7.00;;
2099;SDS011;1055;48.854;9.302;2023-06-14T04:02:22;10.93;;;7.60;;
2099;SDS011;1055;48.854;9.302;2023-06-14T04:04:48;10.10;;;7.23;;
2099;SDS011;1055;48.854;9.302;2023-06-14T04:07:14;9.70;;;7.13;;
2099;SDS011;1055;48.854;9.302;2023-06-14T04:09:44;11.60;;;7.80;;
2099;SDS011;1055;48.854;9.302;2023-06-14T04:12:10;11.50;;;8.37;;
2099;SDS011;1055;48.854;9.302;2023-06-14T04:14:37;12.00;;;8.10;;
2099;SDS011;1055;48.854;9.302;2023-06-14T04:17:03;11.70;;;8.90;;
2099;SDS011;1055;48.854;9.302;2023-06-14T04:19:29;11.07;;;7.80;;
2099;SDS011;1055;48.854;9.302;2023-06-14T04:21:54;12.17;;;6.80;;
2099;SDS011;1055;48.854;9.302;2023-06-14T04:24:20;12.37;;;7.30;;
2099;SDS011;1055;48.854;9.302;2023-06-14T04:26:46;12.57;;;6.70;;
2099;SDS011;1055;48.854;9.302;2023-06-14T04:29:16;10.10;;;7.20;;
2099;SDS011;1055;48.854;9.302;2023-06-14T04:31:45;11.90;;;7.40;;
2099;SDS011;1055;48.854;9.302;2023-06-14T04:34:11;11.60;;;7.63;;
2099;SDS011;1055;48.854;9.302;2023-06-14T04:36:43;10.90;;;8.10;;
2099;SDS011;1055;48.854;9.302;2023-06-14T04:39:18;11.03;;;7.60;;
2099;SDS011;1055;48.854;9.302;2023-06-14T04:41:45;13.03;;;7.20;;
2099;SDS011;1055;48.854;9.302;2023-06-14T04:44:12;11.93;;;7.27;;
2099;SDS011;1055;48.854;9.302;2023-06-14T04:46:38;10.07;;;6.70;;
2099;SDS011;1055;48.854;9.302;2023-06-14T04:49:14;10.43;;;8.23;;
2099;SDS011;1055;48.854;9.302;2023-06-14T04:51:41;11.80;;;7.27;;
2099;SDS011;1055;48.854;9.302;2023-06-14T04:54:07;10.70;;;7.33;;
2099;SDS011;1055;48.854;9.302;2023-06-14T04:56:35;14.30;;;8.20;;
2099;SDS011;1055;48.854;9.302;2023-06-14T04:59:02;10.40;;;7.83;;
2099;SDS011;1055;48.854;9.302;2023-06-14T05:01:31;10.60;;;7.53;;
2099;SDS011;1055;48.854;9.302;2023-06-14T05:03:58;13.93;;;8.50;;
2099;SDS011;1055;48.854;9.302;2023-06-14T05:06:24;13.77;;;8.30;;
2099;SDS011;1055;48.854;9.302;2023-06-14T05:08:51;12.00;;;7.83;;
2099;SDS011;1055;48.854;9.302;2023-06-14T05:11:17;18.07;;;8.40;;
2099;SDS011;1055;48.854;9.302;2023-06-14T05:13:42;13.00;;;8.30;;
2099;SDS011;1055;48.854;9.302;2023-06-14T05:16:10;13.50;;;8.63;;
2099;SDS011;1055;48.854;9.302;2023-06-14T05:18:40;10.73;;;7.33;;
2099;SDS011;1055;48.854;9.302;2023-06-14T05:21:06;12.57;;;7.30;;
2099;SDS011;1055;48.854;9.302;2023-06-14T05:23:32;10.20;;;7.50;;
2099;SDS011;1055;48.854;9.302;2023-06-14T05:25:57;10.50;;;7.43;;
2099;SDS011;1055;48.854;9.302;2023-06-14T05:28:23;10.20;;;7.87;;
2099;SDS011;1055;48.854;9.302;2023-06-14T05:30:49;13.97;;;7.70;;
2099;SDS011;1055;48.854;9.302;2023-06-14T05:33:15;12.40;;;7.80;;
2099;SDS011;1055;48.854;9.302;2023-06-14T05:35:41;12.57;;;8.10;;
2099;SDS011;1055;48.854;9.302;2023-06-14T05:38:07;10.37;;;7.57;;
2099;SDS011;1055;48.854;9.302;2023-06-14T05:40:33;11.63;;;8.40;;
2099;SDS011;1055;48.854;9.302;2023-06-14T05:42:59;12.60;;;7.10;;
2099;SDS011;1055;48.854;9.302;2023-06-14T05:45:24;10.37;;;7.70;;
2099;SDS011;1055;48.854;9.302;2023-06-14T05:47:50;10.23;;;7.47;;
2099;SDS011;1055;48.854;9.302;2023-06-14T05:50:17;13.10;;;8.13;;
2099;SDS011;1055;48.854;9.302;2023-06-14T05:52:43;10.70;;;7.70;;
2099;SDS011;1055;48.854;9.302;2023-06-14T05:55:08;11.70;;;8.10;;
2099;SDS011;1055;48.854;9.302;2023-06-14T05:57:37;13.10;;;8.10;;
2099;SDS011;1055;48.854;9.302;2023-06-14T06:00:03;13.87;;;9.00;;
2099;SDS011;1055;48.854;9.302;2023-06-14T06:02:36;13.67;;;7.70;;
2099;SDS011;1055;48.854;9.302;2023-06-14T06:05:02;10.60;;;8.07;;
2099;SDS011;1055;48.854;9.302;2023-06-14T06:07:27;11.63;;;7.50;;
2099;SDS011;1055;48.854;9.302;2023-06-14T06:09:53;12.30;;;8.43;;
2099;SDS011;1055;48.854;9.302;2023-06-14T06:12:20;11.10;;;7.33;;
2099;SDS011;1055;48.854;9.302;2023-06-14T06:14:45;11.63;;;7.93;;
2099;SDS011;1055;48.854;9.302;2023-06-14T06:17:11;11.67;;;7.87;;
2099;SDS011;1055;48.854;9.302;2023-06-14T06:19:37;11.97;;;7.50;;
2099;SDS011;1055;48.854;9.302;2023-06-14T06:22:02;11.93;;;8.20;;
2099;SDS011;1055;48.854;9.302;2023-06-14T06:24:31;12.80;;;7.60;;
2099;SDS011;1055;48.854;9.302;2023-06-14T06:26:57;10.33;;;7.80;;
2099;SDS011;1055;48.854;9.302;2023-06-14T06:29:23;9.77;;;7.60;;
2099;SDS011;1055;48.854;9.302;2023-06-14T06:31:48;9.53;;;7.13;;
2099;SDS011;1055;48.854;9.302;2023-06-14T06:34:14;9.70;;;8.00;;
2099;SDS011;1055;48.854;9.302;2023-06-14T06:36:40;9.57;;;7.00;;
2099;SDS011;1055;48.854;9.302;2023-06-14T06:39:05;10.77;;;7.50;;
2099;SDS011;1055;48.854;9.302;2023-06-14T06:41:35;9.73;;;6.77;;
2099;SDS011;1055;48.854;9.302;2023-06-14T06:44:05;12.17;;;7.93;;
2099;SDS011;1055;48.854;9.302;2023-06-14T06:46:31;11.43;;;8.00;;
2099;SDS011;1055;48.854;9.302;2023-06-14T06:48:57;10.70;;;7.47;;
2099;SDS011;1055;48.854;9.302;2023-06-14T06:51:23;10.73;;;7.33;;
2099;SDS011;1055;48.854;9.302;2023-06-14T06:53:55;9.77;;;7.70;;
2099;SDS011;1055;48.854;9.302;2023-06-14T06:56:21;11.07;;;7.50;;
2099;SDS011;1055;48.854;9.302;2023-06-14T06:58:50;12.87;;;7.80;;
2099;SDS011;1055;48.854;9.302;2023-06-14T07:01:16;12.00;;;7.80;;
2099;SDS011;1055;48.854;9.302;2023-06-14T07:03:42;11.97;;;7.67;;
2099;SDS011;1055;48.854;9.302;2023-06-14T07:06:08;11.57;;;7.47;;
2099;SDS011;1055;48.854;9.302;2023-06-14T07:08:34;9.70;;;7.80;;
2099;SDS011;1055;48.854;9.302;2023-06-14T07:11:00;10.10;;;7.67;;
2099;SDS011;1055;48.854;9.302;2023-06-14T07:13:27;12.50;;;7.80;;
2099;SDS011;1055;48.854;9.302;2023-06-14T07:15:58;11.30;;;8.00;;
2099;SDS011;1055;48.854;9.302;2023-06-14T07:18:25;9.87;;;7.33;;
2099;SDS011;1055;48.854;9.302;2023-06-14T07:20:51;9.87;;;7.83;;
2099;SDS011;1055;48.854;9.302;2023-06-14T07:23:18;15.87;;;8.17;;
2099;SDS011;1055;48.854;9.302;2023-06-14T07:25:45;9.83;;;7.83;;
2099;SDS011;1055;48.854;9.302;2023-06-14T07:28:10;11.00;;;8.20;;
2099;SDS011;1055;48.854;9.302;2023-06-14T07:30:36;9.47;;;7.50;;
2099;SDS011;1055;48.854;9.302;2023-06-14T07:33:02;11.90;;;8.73;;
2099;SDS011;1055;48.854;9.302;2023-06-14T07:35:27;9.80;;;7.77;;
2099;SDS011;1055;48.854;9.302;2023-06-14T07:37:53;8.70;;;7.60;;
2099;SDS011;1055;48.854;9.302;2023-06-14T07:40:19;10.87;;;6.80;;
2099;SDS011;1055;48.854;9.302;2023-06-14T07:42:45;8.57;;;6.97;;
2099;SDS011;1055;48.854;9.302;2023-06-14T07:45:13;10.07;;;7.07;;
2099;SDS011;1055;48.854;9.302;2023-06-14T07:47:39;9.20;;;7.20;;
2099;SDS011;1055;48.854;9.302;2023-06-14T07:50:05;10.57;;;7.07;;
2099;SDS011;1055;48.854;9.302;2023-06-14T07:52:31;11.43;;;7.77;;
2099;SDS011;1055;48.854;9.302;2023-06-14T07:54:56;10.10;;;7.10;;
2099;SDS011;1055;48.854;9.302;2023-06-14T07:57:23;11.30;;;7.07;;
2099;SDS011;1055;48.854;9.302;2023-06-14T07:59:49;9.80;;;7.20;;
2099;SDS011;1055;48.854;9.302;2023-06-14T08:02:15;9.10;;;7.27;;
2099;SDS011;1055;48.854;9.302;2023-06-14T08:04:40;11.47;;;7.10;;
2099;SDS011;1055;48.854;9.302;2023-06-14T08:07:07;9.10;;;7.17;;
2099;SDS011;1055;48.854;9.302;2023-06-14T08:09:33;8.20;;;6.73;;
2099;SDS011;1055;48.854;9.302;2023-06-14T08:11:58;11.87;;;7.90;;
2099;SDS011;1055;48.854;9.302;2023-06-14T08:14:25;12.30;;;7.87;;
2099;SDS011;1055;48.854;9.302;2023-06-14T08:16:50;10.43;;;7.47;;
2099;SDS011;1055;48.854;9.302;2023-06-14T08:19:16;10.00;;;7.27;;
2099;SDS011;1055;48.854;9.302;2023-06-14T08:21:43;11.90;;;7.80;;
2099;SDS011;1055;48.854;9.302;2023-06-14T08:24:09;10.77;;;7.43;;
2099;SDS011;1055;48.854;9.302;2023-06-14T08:26:37;8.97;;;7.00;;
2099;SDS011;1055;48.854;9.302;2023-06-14T08:29:04;10.07;;;7.70;;
2099;SDS011;1055;48.854;9.302;2023-06-14T08:31:31;10.77;;;7.93;;
2099;SDS011;1055;48.854;9.302;2023-06-14T08:33:58;11.30;;;6.90;;
2099;SDS011;1055;48.854;9.302;2023-06-14T08:36:23;10.03;;;7.10;;
2099;SDS011;1055;48.854;9.302;2023-06-14T08:38:49;10.40;;;7.60;;
2099;SDS011;1055;48.854;9.302;2023-06-14T08:41:17;11.03;;;7.40;;
2099;SDS011;1055;48.854;9.302;2023-06-14T08:43:46;8.83;;;7.00;;
2099;SDS011;1055;48.854;9.302;2023-06-14T08:46:13;9.40;;;7.47;;
2099;SDS011;1055;48.854;9.302;2023-06-14T08:48:45;10.60;;;7.17;;
2099;SDS011;1055;48.854;9.302;2023-06-14T08:51:16;9.47;;;7.63;;
2099;SDS011;1055;48.854;9.302;2023-06-14T08:53:44;8.87;;;6.77;;
2099;SDS011;1055;48.854;9.302;2023-06-14T08:56:10;9.33;;;6.80;;
2099;SDS011;1055;48.854;9.302;2023-06-14T08:58:40;11.17;;;6.80;;
2099;SDS011;1055;48.854;9.302;2023-06-14T09:01:10;9.93;;;7.50;;
2099;SDS011;1055;48.854;9.302;2023-06-14T09:03:41;12.60;;;7.37;;
2099;SDS011;1055;48.854;9.302;2023-06-14T09:06:08;9.67;;;7.03;;
2099;SDS011;1055;48.854;9.302;2023-06-14T09:08:38;11.57;;;7.80;;
2099;SDS011;1055;48.854;9.302;2023-06-14T09:11:06;9.53;;;7.37;;
2099;SDS011;1055;48.854;9.302;2023-06-14T09:13:33;10.60;;;7.20;;
2099;SDS011;1055;48.854;9.302;2023-06-14T09:15:59;10.70;;;7.37;;
2099;SDS011;1055;48.854;9.302;2023-06-14T09:21:20;9.53;;;7.03;;
2099;SDS011;1055;48.854;9.302;2023-06-14T09:23:47;11.13;;;7.47;;
2099;SDS011;1055;48.854;9.302;2023-06-14T09:26:13;10.27;;;7.10;;
2099;SDS011;1055;48.854;9.302;2023-06-14T09:28:44;12.73;;;7.63;;
2099;SDS011;1055;48.854;9.302;2023-06-14T09:31:11;9.50;;;6.93;;
2099;SDS011;1055;48.854;9.302;2023-06-14T09:33:37;9.00;;;6.10;;
2099;SDS011;1055;48.854;9.302;2023-06-14T09:36:04;8.10;;;6.20;;
2099;SDS011;1055;48.854;9.302;2023-06-14T09:38:34;10.47;;;6.30;;
2099;SDS011;1055;48.854;9.302;2023-06-14T09:41:00;10.00;;;6.47;;
2099;SDS011;1055;48.854;9.302;2023-06-14T09:43:29;8.80;;;6.40;;
2099;SDS011;1055;48.854;9.302;2023-06-14T09:45:58;9.30;;;6.57;;
2099;SDS011;1055;48.854;9.302;2023-06-14T09:48:25;13.70;;;7.27;;
2099;SDS011;1055;48.854;9.302;2023-06-14T09:50:51;12.83;;;6.60;;
2099;SDS011;1055;48.854;9.302;2023-06-14T09:53:21;8.73;;;5.87;;
2099;SDS011;1055;48.854;9.302;2023-06-14T09:55:50;11.20;;;7.00;;
2099;SDS011;1055;48.854;9.302;2023-06-14T09:58:17;8.70;;;5.57;;
2099;SDS011;1055;48.854;9.302;2023-06-14T10:00:45;11.83;;;6.33;;
2099;SDS011;1055;48.854;9.302;2023-06-14T10:03:17;11.63;;;6.83;;
2099;SDS011;1055;48.854;9.302;2023-06-14T10:05:49;8.23;;;5.90;;
2099;SDS011;1055;48.854;9.302;2023-06-14T10:08:16;10.47;;;7.20;;
2099;SDS011;1055;48.854;9.302;2023-06-14T10:10:44;9.50;;;6.57;;
2099;SDS011;1055;48.854;9.302;2023-06-14T10:13:10;9.60;;;6.30;;
2099;SDS011;1055;48.854;9.302;2023-06-14T10:18:33;8.37;;;5.70;;
2099;SDS011;1055;48.854;9.302;2023-06-14T10:23:57;10.67;;;6.40;;
2099;SDS011;1055;48.854;9.302;2023-06-14T10:26:28;8.33;;;6.30;;
2099;SDS011;1055;48.854;9.302;2023-06-14T10:28:58;9.17;;;6.13;;
2099;SDS011;1055;48.854;9.302;2023-06-14T10:31:45;8.80;;;6.27;;
2099;SDS011;1055;48.854;9.302;2023-06-14T10:34:22;9.23;;;6.17;;
2099;SDS011;1055;48.854;9.302;2023-06-14T10:36:59;10.60;;;5.80;;
2099;SDS011;1055;48.854;9.302;2023-06-14T10:39:26;9.43;;;6.70;;
2099;SDS011;1055;48.854;9.302;2023-06-14T10:41:53;9.37;;;6.30;;
2099;SDS011;1055;48.854;9.302;2023-06-14T10:46:46;9.43;;;6.90;;
2099;SDS011;1055;48.854;9.302;2023-06-14T10:49:16;7.60;;;5.47;;
2099;SDS011;1055;48.854;9.302;2023-06-14T10:51:45;11.00;;;6.70;;
2099;SDS011;1055;48.854;9.302;2023-06-14T10:54:15;9.10;;;6.23;;
2099;SDS011;1055;48.854;9.302;2023-06-14T10:56:51;8.33;;;6.43;;
2099;SDS011;1055;48.854;9.302;2023-06-14T10:59:19;8.50;;;6.27;;
2099;SDS011;1055;48.854;9.302;2023-06-14T11:04:48;7.73;;;5.37;;
2099;SDS011;1055;48.854;9.302;2023-06-14T11:12:45;9.63;;;5.70;;
2099;SDS011;1055;48.854;9.302;2023-06-14T11:15:13;11.53;;;6.60;;
2099;SDS011;1055;48.854;9.302;2023-06-14T11:17:38;10.50;;;6.37;;
2099;SDS011;1055;48.854;9.302;2023-06-14T11:20:10;9.90;;;5.80;;
2099;SDS011;1055;48.854;9.302;2023-06-14T11:22:43;7.90;;;5.80;;
2099;SDS011;1055;48.854;9.302;2023-06-14T11:25:09;8.93;;;6.63;;
2099;SDS011;1055;48.854;9.302;2023-06-14T11:27:38;9.73;;;6.43;;
2099;SDS011;1055;48.854;9.302;2023-06-14T11:30:06;8.57;;;5.90;;
2099;SDS011;1055;48.854;9.302;2023-06-14T11:32:33;9.40;;;5.83;;
2099;SDS011;1055;48.854;9.302;2023-06-14T11:34:59;9.47;;;6.63;;
2099;SDS011;1055;48.854;9.302;2023-06-14T11:37:25;11.00;;;6.40;;
2099;SDS011;1055;48.854;9.302;2023-06-14T11:39:58;7.63;;;6.07;;
2099;SDS011;1055;48.854;9.302;2023-06-14T11:42:29;7.70;;;5.50;;
2099;SDS011;1055;48.854;9.302;2023-06-14T11:44:55;7.63;;;5.43;;
2099;SDS011;1055;48.854;9.302;2023-06-14T11:47:24;10.57;;;6.47;;
2099;SDS011;1055;48.854;9.302;2023-06-14T11:49:49;9.27;;;6.10;;
2099;SDS011;1055;48.854;9.302;2023-06-14T11:52:16;10.20;;;6.40;;
2099;SDS011;1055;48.854;9.302;2023-06-14T11:54:43;12.10;;;6.50;;
2099;SDS011;1055;48.854;9.302;2023-06-14T11:57:09;9.97;;;6.27;;
2099;SDS011;1055;48.854;9.302;2023-06-14T11:59:38;11.03;;;6.07;;
2099;SDS011;1055;48.854;9.302;2023-06-14T12:02:09;8.17;;;6.33;;
2099;SDS011;1055;48.854;9.302;2023-06-14T12:04:40;9.83;;;6.23;;
2099;SDS011;1055;48.854;9.302;2023-06-14T12:07:10;8.47;;;5.67;;
2099;SDS011;1055;48.854;9.302;2023-06-14T12:09:39;7.73;;;5.83;;
2099;SDS011;1055;48.854;9.302;2023-06-14T12:12:05;8.00;;;5.90;;
2099;SDS011;1055;48.854;9.302;2023-06-14T12:14:31;9.90;;;5.70;;
2099;SDS011;1055;48.854;9.302;2023-06-14T12:17:04;10.47;;;6.33;;
2099;SDS011;1055;48.854;9.302;2023-06-14T12:19:33;8.73;;;5.67;;
2099;SDS011;1055;48.854;9.302;2023-06-14T12:22:06;9.80;;;5.90;;
2099;SDS011;1055;48.854;9.302;2023-06-14T12:24:35;10.00;;;6.17;;
2099;SDS011;1055;48.854;9.302;2023-06-14T12:27:01;8.33;;;5.60;;
2099;SDS011;1055;48.854;9.302;2023-06-14T12:29:30;11.83;;;5.67;;
2099;SDS011;1055;48.854;9.302;2023-06-14T12:31:56;8.10;;;6.23;;
2099;SDS011;1055;48.854;9.302;2023-06-14T12:34:23;8.10;;;5.73;;
2099;SDS011;1055;48.854;9.302;2023-06-14T12:36:55;7.93;;;5.60;;
2099;SDS011;1055;48.854;9.302;2023-06-14T12:39:22;10.23;;;5.43;;
2099;SDS011;1055;48.854;9.302;2023-06-14T12:41:48;9.97;;;6.13;;
2099;SDS011;1055;48.854;9.302;2023-06-14T12:44:14;7.87;;;5.77;;
2099;SDS011;1055;48.854;9.302;2023-06-14T12:46:41;9.50;;;6.57;;
2099;SDS011;1055;48.854;9.302;2023-06-14T12:49:08;9.37;;;6.17;;
2099;SDS011;1055;48.854;9.302;2023-06-14T12:51:37;11.90;;;6.13;;
2099;SDS011;1055;48.854;9.302;2023-06-14T12:54:04;7.33;;;5.73;;
2099;SDS011;1055;48.854;9.302;2023-06-14T12:56:29;8.67;;;6.10;;
2099;SDS011;1055;48.854;9.302;2023-06-14T12:58:55;12.13;;;5.80;;
2099;SDS011;1055;48.854;9.302;2023-06-14T13:01:21;7.63;;;5.60;;
2099;SDS011;1055;48.854;9.302;2023-06-14T13:03:46;9.90;;;6.27;;
2099;SDS011;1055;48.854;9.302;2023-06-14T13:06:13;8.87;;;5.70;;
2099;SDS011;1055;48.854;9.302;2023-06-14T13:08:38;8.77;;;5.87;;
2099;SDS011;1055;48.854;9.302;2023-06-14T13:11:04;10.43;;;6.23;;
2099;SDS011;1055;48.854;9.302;2023-06-14T13:13:30;12.60;;;6.53;;
2099;SDS011;1055;48.854;9.302;2023-06-14T13:15:55;8.87;;;6.47;;
2099;SDS011;1055;48.854;9.302;2023-06-14T13:18:21;8.70;;;6.10;;
2099;SDS011;1055;48.854;9.302;2023-06-14T13:20:47;9.30;;;6.10;;
2099;SDS011;1055;48.854;9.302;2023-06-14T13:23:13;7.20;;;5.20;;
2099;SDS011;1055;48.854;9.302;2023-06-14T13:25:40;8.03;;;6.60;;
2099;SDS011;1055;48.854;9.302;2023-06-14T13:28:06;8.73;;;6.07;;
2099;SDS011;1055;48.854;9.302;2023-06-14T13:30:32;9.53;;;6.40;;
2099;SDS011;1055;48.854;9.302;2023-06-14T13:32:58;9.30;;;6.07;;
2099;SDS011;1055;48.854;9.302;2023-06-14T13:35:24;8.90;;;6.00;;
2099;SDS011;1055;48.854;9.302;2023-06-14T13:37:50;9.77;;;6.80;;
2099;SDS011;1055;48.854;9.302;2023-06-14T13:40:16;11.40;;;6.70;;
2099;SDS011;1055;48.854;9.302;2023-06-14T13:42:42;7.77;;;5.97;;
2099;SDS011;1055;48.854;9.302;2023-06-14T13:45:08;8.13;;;6.00;;
2099;SDS011;1055;48.854;9.302;2023-06-14T13:47:35;10.13;;;6.50;;
2099;SDS011;1055;48.854;9.302;2023-06-14T13:50:01;9.60;;;5.80;;
2099;SDS011;1055;48.854;9.302;2023-06-14T13:52:27;7.83;;;5.90;;
2099;SDS011;1055;48.854;9.302;2023-06-14T13:54:53;10.17;;;6.20;;
2099;SDS011;1055;48.854;9.302;2023-06-14T13:57:18;10.23;;;6.60;;
2099;SDS011;1055;48.854;9.302;2023-06-14T13:59:44;9.07;;;5.80;;
2099;SDS011;1055;48.854;9.302;2023-06-14T14:02:10;9.10;;;6.30;;
2099;SDS011;1055;48.854;9.302;2023-06-14T14:04:37;7.43;;;5.80;;
2099;SDS011;1055;48.854;9.302;2023-06-14T14:07:05;8.13;;;6.17;;
2099;SDS011;1055;48.854;9.302;2023-06-14T14:09:33;8.40;;;5.53;;
2099;SDS011;1055;48.854;9.302;2023-06-14T14:12:04;9.27;;;6.10;;
2099;SDS011;1055;48.854;9.302;2023-06-14T14:14:33;8.50;;;5.97;;
2099;SDS011;1055;48.854;9.302;2023-06-14T14:17:01;10.30;;;6.40;;
2099;SDS011;1055;48.854;9.302;2023-06-14T14:19:27;9.30;;;6.17;;
2099;SDS011;1055;48.854;9.302;2023-06-14T14:21:53;10.50;;;5.83;;
2099;SDS011;1055;48.854;9.302;2023-06-14T14:24:19;8.00;;;5.87;;
2099;SDS011;1055;48.854;9.302;2023-06-14T14:26:45;8.10;;;5.60;;
2099;SDS011;1055;48.854;9.302;2023-06-14T14:29:13;7.10;;;5.80;;
2099;SDS011;1055;48.854;9.302;2023-06-14T14:31:39;7.90;;;6.07;;
2099;SDS011;1055;48.854;9.302;2023-06-14T14:34:05;10.00;;;6.23;;
2099;SDS011;1055;48.854;9.302;2023-06-14T14:36:31;8.83;;;5.90;;
2099;SDS011;1055;48.854;9.302;2023-06-14T14:38:59;8.60;;;5.63;;
2099;SDS011;1055;48.854;9.302;2023-06-14T14:41:25;8.63;;;6.17;;
2099;SDS011;1055;48.854;9.302;2023-06-14T14:43:52;8.90;;;5.60;;
2099;SDS011;1055;48.854;9.302;2023-06-14T14:46:18;8.63;;;6.23;;
2099;SDS011;1055;48.854;9.302;2023-06-14T14:48:43;8.10;;;5.70;;
2099;SDS011;1055;48.854;9.302;2023-06-14T14:51:09;9.03;;;5.70;;
2099;SDS011;1055;48.854;9.302;2023-06-14T14:53:35;8.23;;;6.20;;
2099;SDS011;1055;48.854;9.302;2023-06-14T14:56:00;9.87;;;5.50;;
2099;SDS011;1055;48.854;9.302;2023-06-14T14:58:26;10.30;;;6.43;;
2099;SDS011;1055;48.854;9.302;2023-06-14T15:00:52;8.97;;;5.60;;
2099;SDS011;1055;48.854;9.302;2023-06-14T15:03:17;8.63;;;5.30;;
2099;SDS011;1055;48.854;9.302;2023-06-14T15:05:43;9.77;;;5.53;;
2099;SDS011;1055;48.854;9.302;2023-06-14T15:08:09;8.40;;;5.87;;
2099;SDS011;1055;48.854;9.302;2023-06-14T15:10:38;8.40;;;6.13;;
2099;SDS011;1055;48.854;9.302;2023-06-14T15:13:08;7.23;;;5.70;;
2099;SDS011;1055;48.854;9.302;2023-06-14T15:15:34;9.17;;;6.00;;
2099;SDS011;1055;48.854;9.302;2023-06-14T15:18:00;8.83;;;5.70;;
2099;SDS011;1055;48.854;9.302;2023-06-14T15:20:26;10.60;;;6.00;;
2099;SDS011;1055;48.854;9.302;2023-06-14T15:22:52;8.37;;;5.40;;
2099;SDS011;1055;48.854;9.302;2023-06-14T15:25:20;9.80;;;6.30;;
2099;SDS011;1055;48.854;9.302;2023-06-14T15:27:46;7.00;;;5.70;;
2099;SDS011;1055;48.854;9.302;2023-06-14T15:30:12;9.33;;;5.70;;
2099;SDS011;1055;48.854;9.302;2023-06-14T15:32:38;9.77;;;5.90;;